Time;durP1;ratioP1;P1;durP2;ratioP2;P2;SDS_P1;SDS_P2;PMS_P1;PMS_P2;Temp;Humidity;BMP_temperature;BMP_pressure;BME280_temperature;BME280_humidity;BME280_pressure;Samples;Min_cycle;Max_cycle;Signal;HPM_P1;HPM_P2
2024/03/24 00:01:07;;;;;;;7.97;4.10;;;13.50;84.70;;;;;;5029659;28;20214;-81
2024/03/24 00:03:38;;;;;;;11.10;4.67;;;13.50;84.80;;;;;;5040346;28;20194;-82
2024/03/24 00:06:04;;;;;;;12.23;4.90;;;13.50;84.90;;;;;;5055843;28;20229;-81
2024/03/24 00:08:32;;;;;;;11.83;5.20;;;13.40;84.90;;;;;;5054838;28;20233;-80
2024/03/24 00:11:01;;;;;;;10.07;4.53;;;13.40;85.00;;;;;;5035242;28;20310;-83
2024/03/24 00:13:28;;;;;;;8.47;4.90;;;13.40;85.00;;;;;;5038896;28;20206;-83
2024/03/24 00:15:57;;;;;;;9.33;4.33;;;13.30;85.00;;;;;;5048098;28;20205;-82
2024/03/24 00:18:27;;;;;;;12.80;4.80;;;13.30;85.20;;;;;;5054544;28;20206;-79
2024/03/24 00:20:54;;;;;;;13.00;4.60;;;13.20;85.30;;;;;;5042011;28;20212;-80
2024/03/24 00:23:21;;;;;;;10.27;4.87;;;13.20;85.50;;;;;;5045675;28;20213;-80
2024/03/24 00:25:47;;;;;;;15.43;4.30;;;13.10;85.60;;;;;;5068366;28;20209;-78
2024/03/24 00:28:14;;;;;;;14.17;5.10;;;13.10;85.70;;;;;;5045881;28;20228;-81
2024/03/24 00:30:42;;;;;;;6.90;4.43;;;13.00;85.60;;;;;;5064244;28;20258;-80
2024/03/24 00:33:08;;;;;;;9.60;4.70;;;12.90;85.50;;;;;;5080533;28;20698;-80
2024/03/24 00:35:34;;;;;;;8.17;3.70;;;12.80;85.20;;;;;;5076033;28;20540;-79
2024/03/24 00:38:01;;;;;;;7.60;3.83;;;12.80;85.10;;;;;;5060340;28;20205;-80
2024/03/24 00:40:27;;;;;;;12.47;4.27;;;12.70;85.10;;;;;;5063127;28;20219;-81
2024/03/24 00:42:55;;;;;;;10.03;4.00;;;12.70;85.10;;;;;;5062526;28;20193;-80
2024/03/24 00:45:22;;;;;;;7.93;3.83;;;12.60;84.90;;;;;;5078681;28;20615;-79
2024/03/24 00:47:51;;;;;;;6.17;3.67;;;12.60;84.70;;;;;;5075325;28;20203;-79
2024/03/24 00:50:17;;;;;;;5.07;3.63;;;12.60;84.60;;;;;;5072306;28;20244;-80
2024/03/24 00:52:44;;;;;;;7.13;3.30;;;12.50;84.50;;;;;;5062238;28;20546;-80
2024/03/24 00:55:10;;;;;;;5.43;3.23;;;12.50;84.30;;;;;;5074043;28;20266;-79
2024/03/24 00:57:36;;;;;;;12.30;2.87;;;12.50;83.90;;;;;;5061321;28;20223;-79
2024/03/24 01:00:03;;;;;;;6.37;2.20;;;12.50;82.70;;;;;;5042226;28;20217;-80
2024/03/24 01:02:29;;;;;;;5.27;2.33;;;12.40;81.60;;;;;;5045273;28;20201;-80
2024/03/24 01:04:56;;;;;;;3.50;1.83;;;12.40;80.40;;;;;;5078576;28;20725;-80
2024/03/24 01:07:22;;;;;;;7.17;2.53;;;12.40;79.20;;;;;;5078320;28;20208;-79
2024/03/24 01:09:53;;;;;;;6.63;1.83;;;12.40;78.00;;;;;;5079715;28;20194;-78
2024/03/24 01:12:19;;;;;;;6.43;1.63;;;12.40;76.70;;;;;;5081099;28;20210;-80
2024/03/24 01:14:45;;;;;;;3.97;1.50;;;12.40;75.70;;;;;;5066670;28;20214;-80
2024/03/24 01:17:12;;;;;;;6.77;1.77;;;12.40;75.00;;;;;;5062920;28;20264;-79
2024/03/24 01:19:38;;;;;;;3.47;1.50;;;12.40;74.50;;;;;;5048912;28;20215;-79
2024/03/24 01:22:04;;;;;;;10.27;2.17;;;12.40;73.70;;;;;;5036507;28;20238;-80
2024/03/24 01:24:30;;;;;;;3.17;1.70;;;12.40;72.90;;;;;;5076768;28;20198;-81
2024/03/24 01:26:57;;;;;;;2.90;1.70;;;12.40;72.20;;;;;;5066477;28;20197;-81
2024/03/24 01:29:23;;;;;;;2.83;1.13;;;12.40;71.30;;;;;;5030338;28;20725;-81
2024/03/24 01:31:50;;;;;;;4.40;1.50;;;12.40;70.20;;;;;;5063105;28;20680;-81
2024/03/24 01:34:16;;;;;;;2.23;1.30;;;12.40;69.50;;;;;;5034805;28;20209;-79
2024/03/24 01:36:42;;;;;;;3.60;1.33;;;12.40;69.30;;;;;;5060794;28;20308;-82
2024/03/24 01:39:11;;;;;;;2.53;1.60;;;12.40;68.90;;;;;;5061188;28;20625;-81
2024/03/24 01:41:38;;;;;;;3.73;1.97;;;12.50;68.00;;;;;;5043144;28;20206;-79
2024/03/24 01:44:04;;;;;;;3.97;1.50;;;12.50;67.30;;;;;;5057910;28;20547;-80
2024/03/24 01:46:31;;;;;;;2.10;1.30;;;12.50;66.20;;;;;;5060246;28;20231;-80
2024/03/24 01:48:58;;;;;;;4.20;1.50;;;12.60;65.60;;;;;;5039982;28;20210;-80
2024/03/24 01:51:25;;;;;;;2.40;1.10;;;12.60;65.10;;;;;;5053037;28;20212;-79
2024/03/24 01:53:54;;;;;;;3.00;1.43;;;12.70;64.50;;;;;;5062814;28;20205;-78
2024/03/24 01:56:20;;;;;;;4.37;1.20;;;12.70;64.70;;;;;;5060007;28;20227;-79
2024/03/24 01:58:47;;;;;;;1.60;1.40;;;12.70;63.40;;;;;;5047172;28;20556;-79
2024/03/24 02:01:14;;;;;;;4.40;1.77;;;12.80;63.10;;;;;;5062891;28;20703;-80
2024/03/24 02:03:40;;;;;;;2.90;1.50;;;12.80;62.50;;;;;;5043608;28;20652;-79
2024/03/24 02:06:06;;;;;;;2.53;1.33;;;12.80;62.00;;;;;;5050877;28;20213;-84
2024/03/24 02:08:35;;;;;;;1.47;1.03;;;12.80;61.20;;;;;;5063338;28;20215;-80
2024/03/24 02:11:01;;;;;;;3.00;1.47;;;12.80;60.40;;;;;;5060118;28;20217;-80
2024/03/24 02:13:27;;;;;;;5.13;1.00;;;12.80;59.90;;;;;;5060292;28;20212;-81
2024/03/24 02:15:54;;;;;;;3.93;1.20;;;12.80;59.30;;;;;;5060422;28;20197;-80
2024/03/24 02:18:24;;;;;;;2.17;1.03;;;12.80;58.90;;;;;;5045839;28;20228;-81
2024/03/24 02:20:50;;;;;;;3.07;1.30;;;12.80;58.50;;;;;;5058864;28;20201;-81
2024/03/24 02:23:18;;;;;;;3.57;1.10;;;12.80;58.10;;;;;;5050528;28;20258;-81
2024/03/24 02:25:44;;;;;;;1.53;1.13;;;12.80;57.90;;;;;;5051712;28;20202;-80
2024/03/24 02:28:11;;;;;;;3.00;0.70;;;12.70;57.40;;;;;;5040232;28;20210;-80
2024/03/24 02:30:38;;;;;;;3.80;1.13;;;12.70;57.30;;;;;;5069671;28;20298;-80
2024/03/24 02:33:04;;;;;;;5.03;1.03;;;12.70;57.30;;;;;;5061114;28;20251;-81
2024/03/24 02:35:30;;;;;;;2.87;1.13;;;12.70;57.10;;;;;;5073701;28;20198;-81
2024/03/24 02:37:59;;;;;;;1.00;0.50;;;12.70;56.80;;;;;;5061367;28;20209;-80
2024/03/24 02:40:26;;;;;;;4.53;1.20;;;12.60;56.50;;;;;;5076617;28;20196;-81
2024/03/24 02:42:52;;;;;;;3.57;1.57;;;12.60;56.20;;;;;;5057979;28;20206;-80
2024/03/24 02:45:18;;;;;;;1.33;0.97;;;12.60;55.70;;;;;;5075125;28;20246;-80
2024/03/24 02:47:46;;;;;;;3.37;0.70;;;12.60;55.60;;;;;;5058517;28;20267;-81
2024/03/24 02:50:14;;;;;;;2.97;1.10;;;12.60;55.40;;;;;;5062226;28;20272;-80
2024/03/24 02:52:41;;;;;;;3.60;0.90;;;12.60;55.10;;;;;;5042942;28;20549;-80
2024/03/24 02:55:07;;;;;;;1.87;1.03;;;12.60;55.10;;;;;;5079345;28;20555;-80
2024/03/24 02:57:33;;;;;;;1.67;0.90;;;12.60;55.10;;;;;;5059313;28;20196;-80
2024/03/24 03:00:00;;;;;;;0.70;0.70;;;12.60;55.10;;;;;;5067081;28;20193;-80
2024/03/24 03:02:27;;;;;;;2.87;1.00;;;12.60;54.90;;;;;;5060305;28;20235;-80
2024/03/24 03:04:54;;;;;;;2.20;0.73;;;12.60;54.70;;;;;;5061606;28;20253;-80
2024/03/24 03:07:20;;;;;;;5.17;1.00;;;12.60;54.80;;;;;;5060631;28;20627;-80
2024/03/24 03:09:47;;;;;;;1.90;0.80;;;12.60;54.70;;;;;;5061962;28;20258;-79
2024/03/24 03:12:13;;;;;;;2.00;0.90;;;12.50;54.90;;;;;;5062968;28;20558;-81
2024/03/24 03:14:41;;;;;;;1.43;0.70;;;12.50;55.00;;;;;;5066932;28;20201;-80
2024/03/24 03:17:07;;;;;;;1.40;0.90;;;12.40;55.30;;;;;;5069860;28;20213;-79
2024/03/24 03:19:37;;;;;;;1.80;0.70;;;12.30;55.70;;;;;;5045001;28;20209;-82
2024/03/24 03:22:10;;;;;;;1.93;0.93;;;12.30;56.10;;;;;;5056859;28;20631;-81
2024/03/24 03:24:38;;;;;;;1.40;0.90;;;12.20;56.60;;;;;;5042565;28;20205;-80
2024/03/24 03:27:05;;;;;;;2.00;0.90;;;12.10;56.80;;;;;;5043979;28;20212;-80
2024/03/24 03:29:31;;;;;;;1.97;0.90;;;12.00;56.70;;;;;;5081531;28;20200;-80
2024/03/24 03:31:58;;;;;;;1.57;0.80;;;11.90;56.50;;;;;;5063612;28;20240;-81
2024/03/24 03:34:28;;;;;;;3.07;0.87;;;11.90;56.70;;;;;;5077503;28;20773;-80
2024/03/24 03:36:56;;;;;;;2.47;0.87;;;11.90;56.50;;;;;;5044201;28;20215;-80
2024/03/24 03:39:23;;;;;;;1.13;0.60;;;11.80;56.30;;;;;;5024258;28;20210;-80
2024/03/24 03:41:52;;;;;;;2.50;0.70;;;11.70;56.40;;;;;;5037587;28;20222;-81
2024/03/24 03:44:19;;;;;;;2.57;0.60;;;11.70;56.80;;;;;;5034227;28;20223;-80
2024/03/24 03:46:46;;;;;;;0.80;0.57;;;11.60;57.20;;;;;;5044528;28;20259;-80
2024/03/24 03:49:16;;;;;;;1.13;0.53;;;11.60;57.40;;;;;;5060401;28;20289;-80
2024/03/24 03:51:44;;;;;;;1.70;0.90;;;11.50;57.70;;;;;;5043911;28;20216;-81
2024/03/24 03:54:11;;;;;;;1.20;0.80;;;11.40;57.80;;;;;;5058730;28;20193;-80
2024/03/24 03:56:38;;;;;;;2.43;1.30;;;11.30;58.20;;;;;;5046964;28;20197;-80
2024/03/24 03:59:06;;;;;;;0.90;0.73;;;11.30;58.20;;;;;;5062858;28;20205;-80
2024/03/24 04:01:32;;;;;;;0.63;0.63;;;11.30;57.90;;;;;;5072943;28;20198;-80
2024/03/24 04:03:59;;;;;;;0.70;0.70;;;11.30;57.70;;;;;;5063397;28;20202;-79
2024/03/24 04:06:26;;;;;;;0.77;0.60;;;11.30;57.60;;;;;;5070639;28;20212;-81
2024/03/24 04:08:53;;;;;;;1.17;0.67;;;11.20;57.30;;;;;;5065246;28;20943;-80
2024/03/24 04:11:19;;;;;;;0.67;0.63;;;11.30;57.30;;;;;;5045427;28;20639;-81
2024/03/24 04:13:48;;;;;;;1.63;0.60;;;11.30;57.30;;;;;;5067559;28;20198;-81
2024/03/24 04:16:16;;;;;;;4.37;0.97;;;11.20;57.40;;;;;;5053951;28;20200;-81
2024/03/24 04:18:46;;;;;;;3.93;1.10;;;11.20;57.80;;;;;;5055155;28;20208;-80
2024/03/24 04:21:14;;;;;;;3.03;0.67;;;11.10;58.00;;;;;;5041651;28;20223;-81
2024/03/24 04:23:41;;;;;;;2.33;0.60;;;11.10;58.70;;;;;;5061865;28;20205;-82
2024/03/24 04:26:07;;;;;;;0.57;0.40;;;11.00;59.10;;;;;;5030329;28;20328;-80
2024/03/24 04:28:33;;;;;;;0.93;0.63;;;11.00;59.50;;;;;;5024739;28;20201;-80
2024/03/24 04:30:59;;;;;;;2.17;0.80;;;10.90;59.20;;;;;;5045247;28;20280;-80
2024/03/24 04:33:26;;;;;;;0.50;0.40;;;10.90;59.10;;;;;;5069309;28;20207;-79
2024/03/24 04:35:53;;;;;;;2.33;1.00;;;10.80;59.00;;;;;;5070889;28;20220;-80
2024/03/24 04:38:19;;;;;;;0.87;0.77;;;10.70;59.00;;;;;;5072945;28;20294;-82
2024/03/24 04:40:46;;;;;;;2.70;0.80;;;10.70;59.10;;;;;;5065606;28;20655;-81
2024/03/24 04:43:13;;;;;;;0.83;0.60;;;10.60;59.20;;;;;;5065575;28;20653;-81
2024/03/24 04:45:44;;;;;;;0.83;0.80;;;10.60;59.40;;;;;;5057573;28;20201;-81
2024/03/24 04:48:11;;;;;;;1.17;0.70;;;10.50;59.40;;;;;;5083053;28;20205;-80
2024/03/24 04:50:41;;;;;;;4.13;0.70;;;10.50;59.60;;;;;;5087530;28;20239;-81
2024/03/24 04:53:09;;;;;;;1.37;0.77;;;10.50;59.90;;;;;;5090572;28;20213;-80
2024/03/24 04:55:37;;;;;;;3.20;0.80;;;10.50;60.10;;;;;;5110722;28;20590;-81
2024/03/24 04:58:04;;;;;;;0.60;0.40;;;10.50;60.40;;;;;;5059854;28;20216;-80
2024/03/24 05:00:31;;;;;;;3.03;0.70;;;10.40;60.60;;;;;;5055016;28;20573;-80
2024/03/24 05:02:58;;;;;;;2.63;0.90;;;10.40;61.10;;;;;;5060691;28;20291;-80
2024/03/24 05:05:25;;;;;;;0.60;0.40;;;10.40;61.20;;;;;;5069299;28;20239;-80
2024/03/24 05:07:52;;;;;;;0.90;0.80;;;10.40;61.50;;;;;;5049321;28;20207;-79
2024/03/24 05:10:19;;;;;;;1.40;0.70;;;10.40;61.50;;;;;;5092831;28;20580;-80
2024/03/24 05:12:45;;;;;;;3.30;0.63;;;10.40;61.40;;;;;;5050695;28;20227;-80
2024/03/24 05:15:11;;;;;;;1.73;0.67;;;10.50;60.30;;;;;;5078921;28;20195;-80
2024/03/24 05:17:37;;;;;;;1.57;0.90;;;10.50;59.00;;;;;;5068769;28;20212;-80
2024/03/24 05:20:08;;;;;;;0.63;0.60;;;10.60;58.50;;;;;;5098701;28;20681;-80
2024/03/24 05:22:36;;;;;;;0.80;0.70;;;10.70;58.30;;;;;;5074367;28;20223;-82
2024/03/24 05:25:04;;;;;;;2.83;0.60;;;10.70;57.90;;;;;;5065499;28;20211;-81
2024/03/24 05:27:30;;;;;;;0.97;0.77;;;10.80;58.30;;;;;;5085893;28;20200;-81
2024/03/24 05:29:57;;;;;;;4.53;0.83;;;10.80;58.30;;;;;;5072585;28;20204;-82
2024/03/24 05:32:24;;;;;;;3.33;0.80;;;10.80;58.70;;;;;;5045323;28;20230;-82
2024/03/24 05:34:50;;;;;;;1.20;0.70;;;10.80;59.00;;;;;;5057415;28;20217;-80
2024/03/24 05:37:16;;;;;;;1.27;0.50;;;10.80;59.30;;;;;;5069361;28;20217;-81
2024/03/24 05:39:46;;;;;;;2.63;0.70;;;10.80;59.60;;;;;;5043289;28;20213;-80
2024/03/24 05:42:12;;;;;;;1.70;0.77;;;10.80;59.70;;;;;;5062367;28;20549;-81
2024/03/24 05:44:39;;;;;;;0.83;0.77;;;10.80;59.80;;;;;;5062117;28;20209;-79
2024/03/24 05:47:06;;;;;;;0.97;0.50;;;10.80;60.00;;;;;;5062846;28;20206;-81
2024/03/24 05:49:32;;;;;;;1.37;0.83;;;10.90;60.20;;;;;;5061362;28;20232;-80
2024/03/24 05:51:59;;;;;;;0.80;0.70;;;10.90;60.30;;;;;;5060564;28;20215;-81
2024/03/24 05:54:25;;;;;;;0.97;0.60;;;10.90;60.40;;;;;;5060793;28;20542;-80
2024/03/24 05:56:51;;;;;;;1.60;0.90;;;10.90;60.40;;;;;;5060562;28;20227;-81
2024/03/24 05:59:19;;;;;;;1.33;0.77;;;11.00;60.30;;;;;;5057549;28;20200;-81
2024/03/24 06:01:47;;;;;;;0.77;0.60;;;11.20;59.40;;;;;;5060375;28;20226;-81
2024/03/24 06:04:13;;;;;;;2.50;0.83;;;11.20;58.60;;;;;;5044107;28;20214;-81
2024/03/24 06:06:41;;;;;;;1.27;0.80;;;11.20;58.40;;;;;;5060404;28;20208;-82
2024/03/24 06:09:09;;;;;;;2.00;0.60;;;11.20;58.60;;;;;;5024621;28;20225;-82
2024/03/24 06:11:35;;;;;;;1.47;1.07;;;11.20;58.80;;;;;;5066308;28;20605;-82
2024/03/24 06:14:02;;;;;;;0.90;0.80;;;11.30;59.10;;;;;;5059297;28;20207;-81
2024/03/24 06:16:28;;;;;;;1.40;0.70;;;11.40;59.60;;;;;;5076317;28;20667;-82
2024/03/24 06:18:55;;;;;;;5.00;1.10;;;11.60;59.50;;;;;;5043250;28;20204;-81
2024/03/24 06:21:21;;;;;;;5.37;1.20;;;11.90;58.70;;;;;;5059374;28;20209;-81
2024/03/24 06:23:51;;;;;;;1.17;0.93;;;12.10;58.20;;;;;;5058665;28;20236;-82
2024/03/24 06:26:18;;;;;;;1.27;1.00;;;12.30;58.40;;;;;;5056492;28;20213;-81
2024/03/24 06:28:44;;;;;;;2.43;1.20;;;12.70;58.00;;;;;;5041948;28;20217;-82
2024/03/24 06:31:10;;;;;;;2.30;1.70;;;13.10;57.10;;;;;;5078087;28;20263;-82
2024/03/24 06:33:37;;;;;;;3.47;2.00;;;13.40;56.60;;;;;;5075458;28;20208;-80
2024/03/24 06:36:04;;;;;;;3.63;2.13;;;13.60;56.40;;;;;;5063610;28;20206;-82
2024/03/24 06:38:31;;;;;;;5.00;1.87;;;13.90;56.30;;;;;;5053355;28;20202;-81
2024/03/24 06:40:57;;;;;;;2.50;1.40;;;14.10;56.20;;;;;;5049153;28;20209;-81
2024/03/24 06:43:30;;;;;;;5.67;2.13;;;14.30;56.90;;;;;;5046720;28;20274;-82
2024/03/24 06:45:57;;;;;;;4.23;2.17;;;14.40;57.70;;;;;;5064744;28;20208;-82
2024/03/24 06:48:23;;;;;;;5.37;2.30;;;14.30;57.50;;;;;;5045874;28;20264;-80
2024/03/24 06:50:50;;;;;;;6.63;2.37;;;14.10;58.90;;;;;;5059896;28;20206;-80
2024/03/24 06:53:17;;;;;;;3.97;2.70;;;14.00;59.40;;;;;;5043928;28;20260;-81
2024/03/24 06:55:49;;;;;;;4.50;3.30;;;13.70;60.30;;;;;;5041555;28;20350;-80
2024/03/24 06:58:19;;;;;;;5.07;3.50;;;13.50;61.90;;;;;;5051790;28;20209;-83
2024/03/24 07:00:56;;;;;;;4.30;3.10;;;13.30;64.60;;;;;;5061504;28;20698;-81
2024/03/24 07:03:26;;;;;;;7.70;3.57;;;13.20;65.20;;;;;;5035105;28;20254;-80
2024/03/24 07:05:55;;;;;;;5.70;4.43;;;13.00;66.60;;;;;;5056307;28;20247;-81
2024/03/24 07:08:24;;;;;;;4.70;4.17;;;13.00;67.90;;;;;;5016993;28;20277;-83
2024/03/24 07:11:08;;;;;;;8.87;4.20;;;13.00;68.90;;;;;;5035073;28;20218;-82
2024/03/24 07:13:34;;;;;;;5.87;4.37;;;13.00;69.80;;;;;;5053882;28;20227;-82
2024/03/24 07:16:06;;;;;;;5.37;3.43;;;13.00;70.70;;;;;;5028005;28;20205;-81
2024/03/24 07:18:33;;;;;;;5.83;4.10;;;13.00;71.80;;;;;;5041512;28;20282;-79
2024/03/24 07:21:07;;;;;;;6.77;4.07;;;13.00;72.50;;;;;;5041771;28;20234;-79
2024/03/24 07:23:37;;;;;;;6.03;3.87;;;13.10;73.70;;;;;;5044201;28;20620;-80
2024/03/24 07:26:06;;;;;;;8.60;3.80;;;13.10;74.70;;;;;;5063818;28;20197;-81
2024/03/24 07:28:32;;;;;;;10.90;3.80;;;13.20;75.80;;;;;;5052622;28;20205;-80
2024/03/24 07:31:02;;;;;;;5.93;4.20;;;13.20;75.70;;;;;;5049863;28;20246;-79
2024/03/24 07:33:31;;;;;;;10.87;4.40;;;13.30;75.50;;;;;;5041949;28;20224;-80
2024/03/24 07:35:57;;;;;;;7.17;3.73;;;13.30;75.70;;;;;;5071776;28;20203;-79
2024/03/24 07:38:23;;;;;;;7.40;4.43;;;13.30;76.20;;;;;;5059545;28;20565;-79
2024/03/24 07:40:50;;;;;;;9.97;4.03;;;13.30;76.40;;;;;;5057018;28;20214;-81
2024/03/24 07:43:20;;;;;;;5.47;3.83;;;13.40;76.50;;;;;;5031511;28;20213;-80
2024/03/24 07:45:50;;;;;;;7.03;3.70;;;13.40;76.80;;;;;;5053696;28;20307;-82
2024/03/24 07:48:23;;;;;;;5.90;3.87;;;13.60;77.10;;;;;;5049256;28;20216;-80
2024/03/24 07:50:54;;;;;;;7.57;3.40;;;13.70;76.60;;;;;;5042717;28;20401;-81
2024/03/24 07:53:25;;;;;;;9.53;4.27;;;13.80;75.70;;;;;;5066741;28;20215;-83
2024/03/24 07:55:57;;;;;;;6.80;3.27;;;13.90;75.40;;;;;;5060424;28;20251;-82
2024/03/24 07:58:33;;;;;;;9.17;3.73;;;14.10;75.50;;;;;;5051021;28;20223;-81
2024/03/24 08:01:03;;;;;;;6.17;3.60;;;14.30;75.10;;;;;;5034000;28;20305;-80
2024/03/24 08:03:32;;;;;;;6.93;3.30;;;14.50;75.10;;;;;;5066891;28;20282;-79
2024/03/24 08:06:06;;;;;;;8.03;3.60;;;14.70;74.40;;;;;;5063541;28;20210;-83
2024/03/24 08:08:32;;;;;;;16.03;3.77;;;14.80;73.00;;;;;;5049044;28;20661;-80
2024/03/24 08:10:58;;;;;;;4.90;2.77;;;15.00;73.60;;;;;;5070847;28;20218;-78
2024/03/24 08:13:25;;;;;;;5.60;2.90;;;15.20;71.80;;;;;;5073225;28;20197;-79
2024/03/24 08:15:53;;;;;;;8.60;3.43;;;15.30;70.70;;;;;;5077662;28;20248;-81
2024/03/24 08:18:20;;;;;;;8.80;3.47;;;15.40;70.60;;;;;;5077867;28;20509;-83
2024/03/24 08:20:47;;;;;;;7.37;3.60;;;15.50;70.40;;;;;;5035847;28;20209;-79
2024/03/24 08:23:15;;;;;;;5.27;3.43;;;15.50;69.50;;;;;;5069243;28;20203;-80
2024/03/24 08:25:44;;;;;;;6.80;3.43;;;15.60;70.60;;;;;;5062001;28;20634;-82
2024/03/24 08:28:12;;;;;;;6.60;3.00;;;15.70;69.60;;;;;;5061447;28;20207;-79
2024/03/24 08:30:41;;;;;;;5.47;3.53;;;15.80;68.10;;;;;;5051754;28;20229;-80
2024/03/24 08:33:08;;;;;;;9.43;3.17;;;15.90;69.40;;;;;;5066946;28;20653;-80
2024/03/24 08:35:35;;;;;;;6.93;3.63;;;16.00;70.50;;;;;;5044052;28;20205;-81
2024/03/24 08:38:02;;;;;;;12.23;3.40;;;16.20;71.00;;;;;;5062619;28;20206;-79
2024/03/24 08:40:28;;;;;;;6.67;4.13;;;16.30;69.20;;;;;;5032975;28;20202;-80
2024/03/24 08:42:54;;;;;;;8.17;3.53;;;16.40;68.80;;;;;;5075095;28;20524;-80
2024/03/24 08:45:20;;;;;;;7.87;3.47;;;16.50;69.40;;;;;;5059307;28;20234;-78
2024/03/24 08:47:46;;;;;;;4.23;3.20;;;16.60;69.40;;;;;;5068583;28;20205;-79
2024/03/24 08:50:13;;;;;;;7.27;3.60;;;16.70;68.50;;;;;;5044911;28;20207;-79
2024/03/24 08:52:39;;;;;;;11.83;3.50;;;16.80;69.20;;;;;;5023475;28;20252;-80
2024/03/24 08:55:08;;;;;;;8.30;3.03;;;16.90;69.40;;;;;;5062537;28;20204;-79
2024/03/24 08:57:35;;;;;;;10.13;3.00;;;17.00;68.80;;;;;;5062368;28;20210;-81
2024/03/24 09:00:03;;;;;;;5.03;2.67;;;17.20;68.30;;;;;;5067300;28;20196;-79
2024/03/24 09:02:29;;;;;;;5.03;2.37;;;17.40;67.40;;;;;;5051581;28;20201;-80
2024/03/24 09:04:56;;;;;;;5.67;2.50;;;17.50;67.00;;;;;;5058427;28;20238;-79
2024/03/24 09:07:22;;;;;;;4.47;2.23;;;17.60;66.90;;;;;;5063400;28;20202;-81
2024/03/24 09:09:49;;;;;;;3.83;2.20;;;17.70;66.90;;;;;;5012153;28;20210;-81
2024/03/24 09:12:15;;;;;;;5.33;2.60;;;17.80;64.00;;;;;;5062285;28;20218;-83
2024/03/24 09:14:42;;;;;;;3.93;1.77;;;17.90;64.90;;;;;;5084449;28;20292;-82
2024/03/24 09:17:12;;;;;;;5.83;2.30;;;17.90;64.90;;;;;;5042961;28;20588;-79
2024/03/24 09:19:38;;;;;;;4.60;2.27;;;18.00;64.00;;;;;;5048013;28;20568;-80
2024/03/24 09:22:08;;;;;;;3.07;2.10;;;18.10;65.70;;;;;;5061744;28;20193;-78
2024/03/24 09:24:34;;;;;;;3.90;1.87;;;18.20;64.50;;;;;;5066741;28;20261;-79
2024/03/24 09:27:02;;;;;;;5.47;1.83;;;18.30;63.70;;;;;;5045367;28;20216;-81
2024/03/24 09:29:30;;;;;;;5.00;2.57;;;18.40;64.00;;;;;;5057902;28;20203;-81
2024/03/24 09:31:58;;;;;;;5.27;2.00;;;18.50;64.00;;;;;;5088413;28;20239;-80
2024/03/24 09:34:25;;;;;;;5.03;1.90;;;18.60;63.30;;;;;;5061812;28;20633;-79
2024/03/24 09:36:51;;;;;;;2.80;2.03;;;18.70;63.10;;;;;;5075159;28;20204;-82
2024/03/24 09:39:19;;;;;;;5.57;1.60;;;18.80;63.30;;;;;;5072739;28;20568;-83
2024/03/24 09:41:46;;;;;;;2.97;1.57;;;19.00;63.90;;;;;;5065576;28;20224;-81
2024/03/24 09:44:14;;;;;;;5.03;1.60;;;19.10;62.20;;;;;;5089265;28;20216;-81
2024/03/24 09:46:45;;;;;;;3.97;1.57;;;19.20;61.90;;;;;;5064583;28;20204;-81
2024/03/24 09:49:14;;;;;;;4.50;2.10;;;19.30;62.10;;;;;;5071253;28;20210;-81
2024/03/24 09:51:42;;;;;;;4.23;1.83;;;19.30;59.90;;;;;;5076626;28;20217;-80
2024/03/24 09:54:14;;;;;;;4.03;2.17;;;19.30;59.70;;;;;;5068204;28;20204;-81
2024/03/24 09:56:41;;;;;;;4.67;2.60;;;19.30;60.90;;;;;;5064310;28;20200;-81
2024/03/24 09:59:08;;;;;;;4.20;2.00;;;19.30;61.10;;;;;;5073571;28;20212;-81
2024/03/24 10:01:40;;;;;;;4.93;1.87;;;19.30;61.00;;;;;;5080877;28;20350;-81
2024/03/24 10:04:06;;;;;;;4.47;2.70;;;19.30;60.70;;;;;;5065919;28;20653;-81
2024/03/24 10:06:34;;;;;;;3.63;1.80;;;19.30;61.60;;;;;;5084843;28;20230;-80
2024/03/24 10:09:02;;;;;;;5.67;1.97;;;19.30;60.00;;;;;;5063582;28;20201;-82
2024/03/24 10:11:35;;;;;;;5.23;1.80;;;19.30;60.30;;;;;;5086710;28;20219;-80
2024/03/24 10:14:04;;;;;;;5.47;2.00;;;19.10;60.60;;;;;;5079940;28;20211;-82
2024/03/24 10:16:31;;;;;;;1.73;1.20;;;19.10;61.50;;;;;;5074179;28;20213;-79
2024/03/24 10:19:08;;;;;;;2.47;1.63;;;19.20;62.30;;;;;;5073552;28;20732;-79
2024/03/24 10:21:34;;;;;;;3.10;1.73;;;19.30;62.10;;;;;;5067243;28;20215;-80
2024/03/24 10:24:00;;;;;;;3.43;1.60;;;19.50;60.80;;;;;;5085056;28;20205;-80
2024/03/24 10:26:27;;;;;;;2.80;1.60;;;19.60;60.40;;;;;;5063608;28;20213;-82
2024/03/24 10:28:55;;;;;;;4.10;2.10;;;19.70;59.90;;;;;;5067014;28;20221;-82
2024/03/24 10:31:22;;;;;;;2.87;2.20;;;19.90;58.90;;;;;;5065559;28;20279;-83
2024/03/24 10:33:50;;;;;;;5.50;1.90;;;20.00;58.60;;;;;;5068985;28;20208;-80
2024/03/24 10:36:21;;;;;;;2.57;1.90;;;20.00;57.10;;;;;;5027117;28;20551;-81
2024/03/24 10:38:47;;;;;;;3.30;2.00;;;20.10;58.10;;;;;;5041026;28;20197;-81
2024/03/24 10:41:15;;;;;;;3.17;1.90;;;20.10;58.50;;;;;;5046309;28;20197;-81
2024/03/24 10:43:47;;;;;;;4.43;2.20;;;20.20;57.90;;;;;;5034490;28;20201;-82
2024/03/24 10:46:14;;;;;;;4.50;2.00;;;20.30;57.90;;;;;;5057806;28;20210;-80
2024/03/24 10:48:44;;;;;;;3.77;1.90;;;20.30;58.70;;;;;;5049001;28;20210;-80
2024/03/24 10:51:16;;;;;;;7.67;2.17;;;20.30;58.50;;;;;;5046521;28;20226;-80
2024/03/24 10:53:44;;;;;;;6.40;1.67;;;20.30;58.30;;;;;;5045218;28;20210;-79
2024/03/24 10:56:11;;;;;;;5.83;1.90;;;20.40;57.40;;;;;;5041511;28;20205;-81
2024/03/24 10:58:39;;;;;;;7.30;2.20;;;20.40;58.30;;;;;;5068699;28;20262;-81
2024/03/24 11:01:05;;;;;;;2.03;1.33;;;20.40;57.60;;;;;;5059652;28;20266;-82
2024/03/24 11:03:35;;;;;;;3.33;2.20;;;20.50;58.20;;;;;;5057228;28;20630;-79
2024/03/24 11:06:03;;;;;;;3.10;2.23;;;20.50;57.80;;;;;;5054957;28;20618;-79
2024/03/24 11:08:29;;;;;;;7.10;2.87;;;20.50;56.80;;;;;;5015550;28;20202;-83
2024/03/24 11:11:00;;;;;;;7.63;3.03;;;20.50;56.60;;;;;;5062608;28;20300;-81
2024/03/24 11:13:36;;;;;;;4.80;2.30;;;20.50;55.60;;;;;;5056725;28;20201;-82
2024/03/24 11:16:03;;;;;;;6.80;2.70;;;20.50;56.00;;;;;;5048159;28;20210;-82
2024/03/24 11:18:30;;;;;;;5.00;2.67;;;20.60;56.10;;;;;;5054451;28;20223;-79
2024/03/24 11:21:00;;;;;;;5.40;2.17;;;20.70;55.50;;;;;;5061511;28;20626;-80
2024/03/24 11:23:40;;;;;;;3.87;2.33;;;20.90;55.60;;;;;;5029143;28;20629;-80
2024/03/24 11:26:26;;;;;;;3.70;2.40;;;21.00;55.40;;;;;;5059255;28;20714;-81
2024/03/24 11:28:52;;;;;;;2.10;1.90;;;21.00;55.30;;;;;;5057915;28;20194;-80
2024/03/24 11:31:21;;;;;;;4.80;2.80;;;21.10;55.30;;;;;;5058892;28;20241;-80
2024/03/24 11:34:05;;;;;;;3.03;1.90;;;21.20;54.90;;;;;;5055945;28;20206;-82
2024/03/24 11:36:34;;;;;;;3.47;2.07;;;21.20;54.30;;;;;;5067267;28;20259;-80
2024/03/24 11:39:04;;;;;;;3.57;2.37;;;21.30;54.20;;;;;;5026681;28;20634;-81
2024/03/24 11:41:31;;;;;;;6.50;2.10;;;21.40;54.80;;;;;;5050209;28;20227;-81
2024/03/24 11:44:04;;;;;;;4.43;2.20;;;21.50;53.50;;;;;;5042584;28;20210;-83
2024/03/24 11:46:32;;;;;;;5.27;2.30;;;21.50;53.50;;;;;;5059086;28;20193;-80
2024/03/24 11:49:00;;;;;;;2.70;1.87;;;21.40;52.90;;;;;;5043350;28;20209;-82
2024/03/24 11:51:29;;;;;;;5.73;2.57;;;21.20;53.20;;;;;;5060727;28;20279;-80
2024/03/24 11:53:56;;;;;;;4.63;2.60;;;21.10;54.30;;;;;;5056557;28;20900;-80
2024/03/24 11:56:24;;;;;;;4.80;2.93;;;21.00;52.90;;;;;;5042565;28;20205;-82
2024/03/24 11:58:54;;;;;;;2.60;2.40;;;20.90;52.30;;;;;;5068510;28;20218;-80
2024/03/24 12:01:22;;;;;;;3.67;2.30;;;20.70;53.10;;;;;;5050577;28;20202;-80
2024/03/24 12:03:50;;;;;;;4.70;2.73;;;20.60;52.70;;;;;;5045672;28;20272;-80
2024/03/24 12:06:19;;;;;;;4.20;2.00;;;20.50;52.60;;;;;;5055196;28;20206;-81
2024/03/24 12:08:49;;;;;;;4.83;2.13;;;20.50;53.30;;;;;;5056499;28;20210;-83
2024/03/24 12:11:15;;;;;;;4.63;1.80;;;20.60;53.60;;;;;;5054519;28;20658;-82
2024/03/24 12:13:43;;;;;;;3.47;1.80;;;20.70;52.40;;;;;;5062330;28;20198;-83
2024/03/24 12:16:15;;;;;;;3.43;1.87;;;20.80;53.90;;;;;;5062065;28;20281;-80
2024/03/24 12:18:43;;;;;;;4.97;2.03;;;20.80;53.70;;;;;;5083838;28;20194;-81
2024/03/24 12:21:12;;;;;;;4.23;1.93;;;20.90;53.50;;;;;;5061420;28;20629;-83
2024/03/24 12:23:38;;;;;;;3.30;2.23;;;20.90;53.40;;;;;;5023631;28;20287;-84
2024/03/24 12:26:05;;;;;;;2.57;1.67;;;20.80;53.30;;;;;;5065430;28;20201;-82
2024/03/24 12:28:31;;;;;;;3.83;1.97;;;20.70;52.80;;;;;;5038720;28;20232;-81
2024/03/24 12:31:00;;;;;;;2.93;1.90;;;20.60;53.30;;;;;;5064599;28;20256;-84
2024/03/24 12:33:27;;;;;;;5.77;1.73;;;20.60;53.10;;;;;;5074910;28;20644;-82
2024/03/24 12:35:54;;;;;;;7.23;2.00;;;20.50;53.00;;;;;;5085366;28;20208;-80
2024/03/24 12:38:21;;;;;;;5.63;1.80;;;20.50;53.00;;;;;;5062199;28;20274;-81
2024/03/24 12:40:54;;;;;;;3.97;1.70;;;20.40;52.50;;;;;;5082624;28;20216;-83
2024/03/24 12:43:25;;;;;;;3.73;1.70;;;20.40;52.60;;;;;;5082624;28;20215;-82
2024/03/24 12:45:55;;;;;;;6.03;1.60;;;20.40;52.40;;;;;;5082611;28;20201;-81
2024/03/24 12:48:25;;;;;;;3.33;1.67;;;20.30;52.10;;;;;;5070411;28;20189;-83